createdAt,value
2019-02-24T00:00:49.891Z,8.50
2019-02-24T00:03:19.366Z,12.67
2019-02-24T00:05:48.819Z,12.33
2019-02-24T00:08:18.214Z,12.77
2019-02-24T00:10:47.668Z,6.63
2019-02-24T00:13:17.191Z,13.33
2019-02-24T00:15:46.611Z,10.40
2019-02-24T00:18:16.041Z,12.50
2019-02-24T00:20:45.470Z,8.93
2019-02-24T00:23:15.146Z,12.30
2019-02-24T00:25:44.627Z,9.57
2019-02-24T00:28:14.067Z,11.23
2019-02-24T00:30:43.770Z,11.63
2019-02-24T00:33:13.196Z,11.80
2019-02-24T00:35:42.688Z,8.83
2019-02-24T00:38:12.276Z,8.47
2019-02-24T00:40:41.804Z,11.13
2019-02-24T00:43:11.216Z,13.63
2019-02-24T00:45:40.671Z,8.60
2019-02-24T00:48:10.671Z,11.50
2019-02-24T00:50:40.176Z,12.60
2019-02-24T00:53:09.976Z,7.27
2019-02-24T00:55:39.436Z,7.50
2019-02-24T00:58:16.008Z,13.63
2019-02-24T01:00:40.342Z,7.50
2019-02-24T01:03:09.888Z,9.23
2019-02-24T01:05:39.314Z,11.83
2019-02-24T01:08:08.927Z,12.23
2019-02-24T01:10:38.417Z,10.77
2019-02-24T01:13:07.836Z,11.43
2019-02-24T01:15:37.442Z,12.37
2019-02-24T01:18:06.922Z,11.40
2019-02-24T01:20:36.372Z,11.73
2019-02-24T01:23:05.828Z,10.40
2019-02-24T01:25:35.788Z,11.77
2019-02-24T01:28:05.260Z,11.50
2019-02-24T01:30:35.032Z,9.90
2019-02-24T01:33:04.557Z,10.30
2019-02-24T01:35:34.017Z,13.30
2019-02-24T01:38:03.562Z,11.93
2019-02-24T01:40:33.015Z,13.20
2019-02-24T01:43:02.451Z,12.00
2019-02-24T01:45:32.312Z,11.23
2019-02-24T01:48:01.762Z,13.23
2019-02-24T01:50:31.436Z,12.13
2019-02-24T01:53:01.036Z,11.07
2019-02-24T01:55:30.487Z,7.47
2019-02-24T01:57:59.951Z,12.53
2019-02-24T02:00:29.443Z,13.23
2019-02-24T02:02:59.025Z,14.63
2019-02-24T02:05:28.693Z,13.07
2019-02-24T02:07:58.122Z,13.63
2019-02-24T02:10:27.607Z,13.90
2019-02-24T02:12:57.472Z,10.47
2019-02-24T02:15:27.075Z,10.60
2019-02-24T02:17:56.561Z,13.20
2019-02-24T02:20:26.282Z,12.97
2019-02-24T02:22:55.788Z,12.60
2019-02-24T02:25:25.219Z,13.10
2019-02-24T02:27:54.842Z,13.13
2019-02-24T02:30:24.266Z,7.17
2019-02-24T02:32:53.788Z,9.40
2019-02-24T02:35:23.634Z,9.87
2019-02-24T02:37:53.136Z,13.70
2019-02-24T02:40:23.109Z,13.57
2019-02-24T02:42:52.543Z,10.00
2019-02-24T02:45:22.379Z,9.03
2019-02-24T02:47:51.845Z,13.70
2019-02-24T02:50:21.295Z,10.47
2019-02-24T02:52:50.836Z,9.07
2019-02-24T02:55:20.294Z,8.37
2019-02-24T02:57:49.727Z,11.70
2019-02-24T03:00:35.540Z,14.97
2019-02-24T03:03:04.982Z,12.13
2019-02-24T03:05:34.586Z,13.97
2019-02-24T03:08:12.579Z,10.83
2019-02-24T03:10:42.072Z,11.47
2019-02-24T03:13:11.523Z,14.63
2019-02-24T03:15:41.391Z,9.17
2019-02-24T03:18:10.815Z,8.30
2019-02-24T03:20:40.258Z,11.07
2019-02-24T03:23:09.784Z,13.13
2019-02-24T03:25:39.228Z,15.13
2019-02-24T03:28:08.668Z,10.90
2019-02-24T03:30:38.083Z,14.43
2019-02-24T03:33:07.736Z,14.80
2019-02-24T03:35:37.172Z,10.13
2019-02-24T03:38:06.571Z,16.67
2019-02-24T03:40:36.066Z,9.40
2019-02-24T03:43:05.568Z,8.00
2019-02-24T03:45:35.012Z,5.27
2019-02-24T03:48:04.430Z,14.40
2019-02-24T03:50:33.996Z,14.07
2019-02-24T03:53:03.448Z,17.50
2019-02-24T03:55:32.921Z,6.17
2019-02-24T03:58:02.659Z,15.30
2019-02-24T04:00:32.112Z,16.37
2019-02-24T04:03:01.645Z,13.70
2019-02-24T04:05:31.076Z,17.07
2019-02-24T04:08:01.150Z,17.10
2019-02-24T04:10:30.660Z,15.90
2019-02-24T04:13:00.123Z,13.10
2019-02-24T04:15:29.636Z,17.60
2019-02-24T04:17:59.152Z,16.20
2019-02-24T04:20:28.788Z,12.47
2019-02-24T04:22:58.200Z,9.57
2019-02-24T04:25:27.649Z,14.07
2019-02-24T04:27:57.123Z,6.23
2019-02-24T04:30:26.602Z,14.80
2019-02-24T04:32:56.040Z,16.13
2019-02-24T04:35:25.474Z,16.17
2019-02-24T04:37:55.084Z,14.97
2019-02-24T04:40:24.543Z,15.57
2019-02-24T04:42:53.989Z,17.37
2019-02-24T04:45:23.441Z,9.03
2019-02-24T04:47:53.184Z,8.00
2019-02-24T04:50:22.567Z,11.20
2019-02-24T04:52:51.985Z,11.27
2019-02-24T04:55:21.603Z,13.50
2019-02-24T04:57:51.088Z,17.00
2019-02-24T05:00:20.517Z,8.13
2019-02-24T05:02:50.022Z,9.03
2019-02-24T05:05:19.702Z,16.73
2019-02-24T05:07:49.231Z,12.80
2019-02-24T05:10:18.656Z,14.20
2019-02-24T05:12:48.222Z,9.17
2019-02-24T05:15:17.680Z,17.40
2019-02-24T05:17:47.132Z,10.50
2019-02-24T05:20:16.631Z,17.33
2019-02-24T05:22:46.096Z,17.17
2019-02-24T05:25:15.757Z,10.03
2019-02-24T05:27:45.369Z,14.80
2019-02-24T05:30:14.899Z,12.90
2019-02-24T05:32:44.399Z,17.23
2019-02-24T05:35:14.058Z,17.93
2019-02-24T05:37:43.568Z,13.00
2019-02-24T05:40:12.979Z,17.47
2019-02-24T05:42:42.682Z,17.27
2019-02-24T05:45:12.342Z,14.90
2019-02-24T05:47:41.751Z,7.67
2019-02-24T05:50:11.211Z,17.40
2019-02-24T05:52:40.615Z,17.67
2019-02-24T05:55:10.067Z,16.30
2019-02-24T05:57:39.505Z,17.60
2019-02-24T06:00:09.367Z,15.57
2019-02-24T06:02:38.865Z,15.73
2019-02-24T06:05:08.386Z,16.00
2019-02-24T06:07:37.947Z,17.23
2019-02-24T06:10:07.569Z,17.20
2019-02-24T06:12:37.067Z,15.77
2019-02-24T06:15:06.713Z,16.47
2019-02-24T06:17:36.195Z,15.23
2019-02-24T06:20:05.997Z,10.40
2019-02-24T06:22:35.388Z,14.60
2019-02-24T06:25:05.071Z,15.73
2019-02-24T06:27:34.726Z,13.40
2019-02-24T06:30:05.290Z,16.37
2019-02-24T06:32:35.409Z,13.60
2019-02-24T06:35:05.204Z,14.47
2019-02-24T06:37:34.654Z,14.33
2019-02-24T06:40:04.242Z,11.90
2019-02-24T06:42:33.830Z,14.27
2019-02-24T06:45:03.386Z,16.43
2019-02-24T06:47:32.976Z,15.57
2019-02-24T06:50:02.706Z,15.47
2019-02-24T06:52:32.149Z,15.33
2019-02-24T06:55:01.785Z,15.77
2019-02-24T06:57:31.522Z,13.63
2019-02-24T07:00:01.111Z,15.90
2019-02-24T07:02:30.621Z,15.67
2019-02-24T07:05:00.281Z,13.80
2019-02-24T07:07:29.756Z,15.33
2019-02-24T07:09:59.325Z,15.37
2019-02-24T07:12:28.891Z,14.53
2019-02-24T07:14:58.691Z,15.90
2019-02-24T07:17:28.150Z,16.97
2019-02-24T07:19:57.570Z,14.30
2019-02-24T07:22:27.227Z,15.80
2019-02-24T07:24:56.843Z,14.20
2019-02-24T07:27:26.253Z,14.97
2019-02-24T07:29:55.905Z,15.97
2019-02-24T07:32:25.388Z,8.17
2019-02-24T07:34:54.845Z,11.60
2019-02-24T07:37:24.702Z,13.97
2019-02-24T07:39:54.253Z,15.30
2019-02-24T07:42:23.800Z,10.80
2019-02-24T07:44:53.265Z,13.10
2019-02-24T07:47:22.809Z,10.60
2019-02-24T07:49:52.563Z,14.23
2019-02-24T07:52:22.063Z,13.93
2019-02-24T07:54:51.487Z,11.87
2019-02-24T07:57:21.135Z,11.20
2019-02-24T07:59:50.617Z,13.53
2019-02-24T08:02:20.125Z,14.70
2019-02-24T08:04:49.589Z,14.73
2019-02-24T08:07:19.217Z,13.20
2019-02-24T08:09:48.959Z,15.17
2019-02-24T08:12:18.665Z,14.70
2019-02-24T08:14:48.114Z,14.80
2019-02-24T08:17:17.535Z,13.67
2019-02-24T08:19:47.198Z,15.40
2019-02-24T08:22:16.697Z,14.03
2019-02-24T08:24:46.175Z,17.43
2019-02-24T08:27:15.982Z,15.30
2019-02-24T08:29:45.550Z,15.20
2019-02-24T08:32:15.299Z,14.90
2019-02-24T08:34:44.830Z,14.70
2019-02-24T08:37:14.660Z,14.17
2019-02-24T08:39:44.124Z,14.87
2019-02-24T08:42:13.672Z,14.90
2019-02-24T08:44:43.300Z,13.97
2019-02-24T08:47:12.726Z,9.03
2019-02-24T08:49:42.263Z,13.20
2019-02-24T08:52:11.865Z,13.37
2019-02-24T08:54:41.318Z,12.67
2019-02-24T08:57:10.815Z,12.13
2019-02-24T08:59:40.437Z,13.13
2019-02-24T09:02:09.950Z,12.70
2019-02-24T09:04:39.477Z,11.13
2019-02-24T09:07:09.092Z,11.50
2019-02-24T09:09:38.504Z,16.30
2019-02-24T09:12:08.163Z,15.78
2019-02-24T09:14:37.777Z,16.60
2019-02-24T09:17:07.288Z,16.17
2019-02-24T09:19:36.868Z,16.73
2019-02-24T09:22:06.555Z,16.35
2019-02-24T09:24:36.086Z,16.67
2019-02-24T09:27:06.409Z,13.95
2019-02-24T09:29:36.181Z,15.65
2019-02-24T09:32:05.681Z,15.38
2019-02-24T09:34:35.176Z,15.20
2019-02-24T09:37:04.754Z,16.20
2019-02-24T09:39:34.441Z,16.55
2019-02-24T09:42:04.092Z,14.83
2019-02-24T09:44:33.662Z,15.28
2019-02-24T09:47:03.482Z,15.13
2019-02-24T09:49:33.104Z,15.48
2019-02-24T09:52:02.596Z,14.55
2019-02-24T09:54:32.052Z,15.60
2019-02-24T09:57:01.616Z,13.60
2019-02-24T09:59:31.196Z,14.40
2019-02-24T10:02:00.750Z,14.33
2019-02-24T10:04:30.116Z,15.48
2019-02-24T10:06:59.593Z,15.28
2019-02-24T10:09:29.128Z,14.47
2019-02-24T10:11:58.659Z,17.10
2019-02-24T10:14:28.178Z,14.85
2019-02-24T10:16:57.844Z,14.78
2019-02-24T10:19:27.358Z,15.20
2019-02-24T10:21:56.772Z,15.10
2019-02-24T10:24:26.229Z,15.87
2019-02-24T10:26:55.796Z,15.18
2019-02-24T10:29:25.316Z,15.90
2019-02-24T10:31:54.846Z,14.05
2019-02-24T10:34:24.341Z,15.40
2019-02-24T10:36:53.824Z,15.65
2019-02-24T10:39:29.485Z,15.35
2019-02-24T10:41:54.563Z,12.73
2019-02-24T10:44:24.089Z,14.58
2019-02-24T10:46:53.541Z,14.98
2019-02-24T10:49:23.093Z,15.43
2019-02-24T10:51:52.547Z,15.53
2019-02-24T10:54:22.046Z,15.63
2019-02-24T10:56:51.486Z,15.60
2019-02-24T10:59:20.963Z,15.10
2019-02-24T11:01:50.435Z,16.12
2019-02-24T11:04:20.007Z,16.30
2019-02-24T11:06:49.533Z,14.33
2019-02-24T11:09:19.129Z,14.20
2019-02-24T11:11:48.598Z,14.90
2019-02-24T11:14:18.180Z,15.30
2019-02-24T11:16:47.692Z,14.55
2019-02-24T11:19:17.228Z,14.65
2019-02-24T11:21:46.799Z,14.98
2019-02-24T11:24:16.365Z,14.53
2019-02-24T11:26:45.876Z,15.15
2019-02-24T11:29:15.425Z,15.68
2019-02-24T11:31:44.943Z,15.00
2019-02-24T11:34:14.527Z,14.53
2019-02-24T11:36:44.021Z,15.10
2019-02-24T11:39:13.504Z,14.95
2019-02-24T11:41:43.187Z,13.63
2019-02-24T11:44:12.782Z,20.23
2019-02-24T11:46:42.417Z,14.78
2019-02-24T11:49:12.062Z,14.07
2019-02-24T11:51:41.594Z,15.03
2019-02-24T11:54:11.499Z,14.85
2019-02-24T11:56:41.097Z,14.93
2019-02-24T11:59:10.905Z,15.17
2019-02-24T12:01:47.263Z,12.20
2019-02-24T12:04:11.707Z,15.05
2019-02-24T12:06:41.451Z,15.50
2019-02-24T12:09:11.158Z,15.15
2019-02-24T12:11:40.731Z,15.07
2019-02-24T12:14:10.168Z,14.95
2019-02-24T12:16:39.633Z,14.28
2019-02-24T12:19:09.548Z,16.00
2019-02-24T12:21:39.043Z,15.98
2019-02-24T12:24:08.481Z,15.53
2019-02-24T12:26:38.138Z,14.03
2019-02-24T12:29:07.810Z,14.93
2019-02-24T12:31:37.430Z,16.00
2019-02-24T12:34:06.977Z,17.77
2019-02-24T12:36:36.513Z,17.40
2019-02-24T12:39:06.742Z,17.00
2019-02-24T12:41:36.378Z,19.57
2019-02-24T12:44:05.825Z,16.95
2019-02-24T12:46:35.617Z,17.42
2019-02-24T12:49:05.130Z,17.77
2019-02-24T12:51:34.520Z,15.98
2019-02-24T12:54:04.248Z,16.42
2019-02-24T12:56:33.690Z,16.25
2019-02-24T12:59:03.242Z,16.73
2019-02-24T13:01:32.748Z,16.12
2019-02-24T13:04:02.312Z,18.13
2019-02-24T13:06:31.737Z,19.52
2019-02-24T13:09:01.587Z,18.12
2019-02-24T13:11:31.246Z,19.92
2019-02-24T13:14:01.121Z,19.87
2019-02-24T13:16:30.572Z,19.10
2019-02-24T13:19:00.156Z,19.92
2019-02-24T13:21:29.791Z,20.62
2019-02-24T13:23:59.358Z,19.32
2019-02-24T13:26:28.897Z,18.95
2019-02-24T13:28:58.490Z,20.55
2019-02-24T13:31:28.029Z,19.12
2019-02-24T13:33:57.459Z,18.15
2019-02-24T13:36:27.020Z,19.27
2019-02-24T13:38:58.282Z,19.65
2019-02-24T13:41:27.632Z,19.80
2019-02-24T13:43:57.200Z,19.52
2019-02-24T13:46:26.943Z,25.45
2019-02-24T13:48:56.470Z,19.13
2019-02-24T13:51:26.408Z,19.32
2019-02-24T13:53:56.019Z,20.45
2019-02-24T13:56:25.711Z,20.32
2019-02-24T13:58:55.328Z,21.45
2019-02-24T14:01:25.099Z,20.40
2019-02-24T14:03:54.724Z,19.70
2019-02-24T14:06:24.455Z,20.10
2019-02-24T14:08:53.878Z,20.20
2019-02-24T14:11:23.357Z,20.17
2019-02-24T14:13:53.429Z,20.48
2019-02-24T14:16:22.888Z,19.65
2019-02-24T14:18:52.533Z,20.37
2019-02-24T14:21:22.102Z,21.87
2019-02-24T14:23:51.611Z,21.37
2019-02-24T14:26:21.235Z,22.62
2019-02-24T14:28:50.777Z,21.85
2019-02-24T14:31:20.296Z,20.68
2019-02-24T14:33:49.902Z,21.40
2019-02-24T14:36:19.338Z,21.33
2019-02-24T14:38:49.298Z,22.93
2019-02-24T14:41:18.794Z,22.35
2019-02-24T14:43:48.249Z,22.37
2019-02-24T14:46:17.857Z,20.48
2019-02-24T14:48:47.427Z,22.85
2019-02-24T14:51:16.901Z,21.77
2019-02-24T14:53:46.644Z,23.87
2019-02-24T14:56:16.135Z,59.33
2019-02-24T14:58:45.656Z,549.38
2019-02-24T15:01:15.160Z,506.63
2019-02-24T15:03:44.732Z,159.12
2019-02-24T15:06:14.226Z,38.08
2019-02-24T15:08:43.914Z,24.85
2019-02-24T15:11:13.371Z,44.75
2019-02-24T15:13:43.379Z,54.50
2019-02-24T15:16:12.848Z,32.70
2019-02-24T15:18:42.670Z,27.60
2019-02-24T15:21:12.104Z,28.02
2019-02-24T15:23:41.914Z,28.23
2019-02-24T15:26:11.382Z,26.40
2019-02-24T15:28:40.845Z,29.10
2019-02-24T15:31:10.529Z,26.12
2019-02-24T15:33:40.455Z,24.80
2019-02-24T15:36:10.203Z,22.70
2019-02-24T15:38:39.660Z,20.75
2019-02-24T15:41:09.146Z,20.97
2019-02-24T15:43:38.797Z,19.75
2019-02-24T15:46:08.430Z,24.67
2019-02-24T15:48:38.199Z,33.28
2019-02-24T15:51:07.784Z,33.23
2019-02-24T15:53:37.325Z,32.42
2019-02-24T15:56:06.961Z,35.17
2019-02-24T15:58:36.470Z,41.13
2019-02-24T16:01:06.803Z,319.55
2019-02-24T16:03:36.757Z,49.85
2019-02-24T16:06:06.680Z,41.70
2019-02-24T16:08:36.233Z,25.80
2019-02-24T16:11:05.916Z,42.70
2019-02-24T16:13:35.546Z,365.35
2019-02-24T16:16:05.131Z,265.98
2019-02-24T16:18:34.661Z,481.67
2019-02-24T16:21:04.201Z,437.23
2019-02-24T16:23:33.792Z,522.45
2019-02-24T16:26:03.372Z,370.50
2019-02-24T16:28:32.839Z,490.70
2019-02-24T16:31:02.440Z,135.70
2019-02-24T16:33:31.944Z,204.47
2019-02-24T16:36:01.490Z,304.10
2019-02-24T16:38:31.366Z,284.83
2019-02-24T16:41:00.954Z,251.50
2019-02-24T16:43:30.388Z,303.15
2019-02-24T16:46:00.075Z,90.90
2019-02-24T16:48:29.528Z,72.78
2019-02-24T16:50:58.996Z,35.10
2019-02-24T16:53:28.646Z,88.00
2019-02-24T16:55:58.166Z,240.90
2019-02-24T16:58:27.630Z,596.25
2019-02-24T17:00:57.388Z,190.73
2019-02-24T17:03:26.876Z,676.27
2019-02-24T17:05:56.555Z,415.92
2019-02-24T17:08:26.226Z,309.40
2019-02-24T17:10:55.863Z,272.82
2019-02-24T17:13:25.438Z,248.27
2019-02-24T17:15:54.966Z,467.93
2019-02-24T17:18:24.795Z,95.62
2019-02-24T17:20:54.249Z,209.55
2019-02-24T17:23:23.777Z,97.20
2019-02-24T17:25:53.367Z,70.00
2019-02-24T17:28:22.969Z,37.83
2019-02-24T17:30:52.728Z,30.12
2019-02-24T17:33:29.785Z,35.27
2019-02-24T17:35:53.464Z,28.80
2019-02-24T17:38:23.037Z,26.67
2019-02-24T17:40:53.751Z,28.73
2019-02-24T17:43:23.294Z,26.70
2019-02-24T17:45:53.031Z,26.10
2019-02-24T17:48:22.545Z,27.40
2019-02-24T17:50:52.085Z,28.23
2019-02-24T17:53:21.756Z,27.35
2019-02-24T17:55:51.395Z,26.30
2019-02-24T17:58:21.163Z,26.02
2019-02-24T18:00:58.987Z,25.62
2019-02-24T18:03:28.524Z,27.95
2019-02-24T18:05:58.260Z,26.40
2019-02-24T18:08:28.446Z,31.23
2019-02-24T18:10:58.012Z,31.10
2019-02-24T18:13:27.654Z,32.87
2019-02-24T18:15:57.367Z,36.10
2019-02-24T18:18:26.968Z,36.65
2019-02-24T18:20:56.824Z,38.53
2019-02-24T18:23:26.346Z,38.67
2019-02-24T18:25:56.119Z,37.98
2019-02-24T18:28:25.510Z,36.38
2019-02-24T18:30:54.977Z,43.80
2019-02-24T18:33:24.677Z,58.38
2019-02-24T18:35:54.111Z,38.60
2019-02-24T18:38:23.524Z,40.73
2019-02-24T18:40:52.923Z,39.42
2019-02-24T18:43:23.302Z,39.67
2019-02-24T18:45:53.157Z,40.40
2019-02-24T18:48:22.639Z,39.55
2019-02-24T18:50:52.230Z,39.75
2019-02-24T18:53:21.652Z,39.70
2019-02-24T18:55:51.106Z,39.83
2019-02-24T18:58:21.247Z,40.25
2019-02-24T19:00:51.102Z,40.20
2019-02-24T19:03:20.602Z,40.80
2019-02-24T19:05:50.394Z,40.03
2019-02-24T19:08:19.918Z,41.08
2019-02-24T19:10:50.037Z,41.15
2019-02-24T19:13:21.199Z,41.95
2019-02-24T19:15:50.849Z,41.23
2019-02-24T19:18:20.534Z,41.92
2019-02-24T19:20:50.098Z,37.35
2019-02-24T19:23:19.598Z,37.75
2019-02-24T19:25:49.388Z,40.78
2019-02-24T19:28:18.945Z,37.08
2019-02-24T19:30:48.598Z,39.10
2019-02-24T19:33:18.096Z,38.95
2019-02-24T19:35:47.812Z,39.08
2019-02-24T19:38:17.438Z,40.28
2019-02-24T19:40:48.348Z,40.53
2019-02-24T19:43:17.807Z,41.37
2019-02-24T19:45:47.825Z,40.12
2019-02-24T19:48:19.858Z,49.50
2019-02-24T19:50:49.484Z,40.55
2019-02-24T19:53:18.888Z,40.37
2019-02-24T19:55:48.517Z,39.33
2019-02-24T19:58:18.124Z,36.65
2019-02-24T20:00:47.559Z,38.38
2019-02-24T20:03:17.245Z,54.03
2019-02-24T20:05:46.781Z,41.48
2019-02-24T20:08:16.276Z,37.85
2019-02-24T20:10:45.813Z,40.48
2019-02-24T20:13:15.300Z,39.95
2019-02-24T20:15:45.190Z,40.75
2019-02-24T20:18:14.667Z,43.33
2019-02-24T20:20:44.350Z,42.38
2019-02-24T20:23:13.978Z,36.90
2019-02-24T20:25:43.407Z,37.77
2019-02-24T20:28:12.965Z,38.40
2019-02-24T20:30:42.556Z,39.45
2019-02-24T20:33:12.013Z,38.20
2019-02-24T20:35:41.453Z,38.90
2019-02-24T20:38:11.102Z,38.15
2019-02-24T20:40:40.570Z,38.90
2019-02-24T20:43:10.113Z,38.40
2019-02-24T20:45:39.549Z,38.08
2019-02-24T20:48:09.104Z,37.98
2019-02-24T20:50:38.549Z,37.63
2019-02-24T20:53:08.024Z,38.90
2019-02-24T20:55:37.672Z,39.05
2019-02-24T20:58:07.149Z,37.40
2019-02-24T21:00:39.194Z,36.83
2019-02-24T21:03:08.634Z,38.15
2019-02-24T21:05:38.304Z,38.50
2019-02-24T21:08:08.148Z,56.40
2019-02-24T21:10:38.189Z,38.02
2019-02-24T21:13:08.270Z,33.00
2019-02-24T21:15:37.754Z,36.75
2019-02-24T21:18:07.523Z,35.17
2019-02-24T21:20:37.130Z,34.55
2019-02-24T21:23:07.018Z,36.65
2019-02-24T21:25:36.464Z,36.55
2019-02-24T21:28:05.944Z,35.33
2019-02-24T21:30:35.564Z,35.98
2019-02-24T21:33:05.084Z,34.17
2019-02-24T21:35:34.538Z,37.05
2019-02-24T21:38:04.806Z,36.80
2019-02-24T21:40:34.463Z,34.03
2019-02-24T21:43:04.033Z,37.85
2019-02-24T21:45:33.648Z,37.93
2019-02-24T21:48:03.234Z,35.05
2019-02-24T21:50:32.816Z,35.23
2019-02-24T21:53:02.436Z,37.35
2019-02-24T21:55:31.898Z,35.73
2019-02-24T21:58:01.367Z,37.03
2019-02-24T22:00:31.241Z,37.10
2019-02-24T22:03:00.823Z,36.20
2019-02-24T22:05:30.649Z,35.35
2019-02-24T22:08:00.075Z,38.23
2019-02-24T22:10:29.562Z,37.35
2019-02-24T22:12:59.495Z,35.92
2019-02-24T22:15:29.240Z,36.33
2019-02-24T22:17:58.808Z,34.80
2019-02-24T22:20:28.265Z,51.43
2019-02-24T22:22:58.008Z,36.80
2019-02-24T22:25:27.499Z,35.43
2019-02-24T22:27:56.967Z,34.05
2019-02-24T22:30:26.602Z,35.23
2019-02-24T22:32:56.046Z,32.08
2019-02-24T22:35:25.490Z,35.15
2019-02-24T22:37:55.087Z,34.05
2019-02-24T22:40:24.510Z,36.15
2019-02-24T22:42:53.922Z,34.48
2019-02-24T22:45:23.448Z,32.50
2019-02-24T22:47:53.179Z,34.30
2019-02-24T22:50:22.616Z,34.95
2019-02-24T22:52:52.036Z,34.92
2019-02-24T22:55:21.788Z,34.63
2019-02-24T22:57:51.240Z,34.48
2019-02-24T23:01:00.544Z,34.67
2019-02-24T23:03:35.579Z,34.63
2019-02-24T23:06:06.520Z,33.92
2019-02-24T23:08:35.932Z,35.80
2019-02-24T23:11:05.387Z,34.60
2019-02-24T23:13:35.605Z,35.13
2019-02-24T23:16:05.252Z,36.75
2019-02-24T23:18:34.788Z,35.17
2019-02-24T23:21:04.538Z,34.40
2019-02-24T23:23:33.984Z,34.58
2019-02-24T23:26:03.520Z,35.87
2019-02-24T23:28:33.796Z,34.00
2019-02-24T23:31:03.677Z,31.95
2019-02-24T23:33:33.162Z,31.82
2019-02-24T23:36:03.451Z,32.40
2019-02-24T23:38:33.296Z,32.30
2019-02-24T23:41:02.773Z,32.83
2019-02-24T23:43:32.289Z,31.30
2019-02-24T23:46:01.926Z,31.33
2019-02-24T23:48:31.348Z,32.23
2019-02-24T23:51:00.821Z,30.75
2019-02-24T23:53:30.384Z,31.50
2019-02-24T23:55:59.853Z,29.77
2019-02-24T23:58:29.306Z,28.98
